Portada
METAR-TAF:

METAR-TAF

Aeroports :

Munda, New Georgia, Illes Salomó

latitud: 8-19-41S, longitud: 157-15-47E, altitud: 3 m

Observació

L'informe es va fer fa 8 hores i 28 minuts, a les 01:00 UTC
Vent 6 kt del Nord-Est
Temperatura 29°C
Humitat 79%
Pressió 1009 hPa
Visibilitat 10 km o més
Escasses núvols a una alçada de 1800 ft
Núvols disperses a una alçada de 10000 ft
Cel ennuvolat a una alçada de 30000 ft

METAR: AGGM 060100Z 05006KT 9999 FEW018 SCT100 BKN300 29/25 Q1009

Hora: 20:28 (09:28 UTC)

Pronòstic

L'informe es va fer fa 4 hores i 18 minuts, a les 05:10 UTC
Pronòstic vàlid del 06 a les 06 UTC al 07 a les 06 UTC
Vent 7 kt del Est
Visibilitat: 1008 m
Escasses núvols a una alçada de 1800 ft
Núvols disperses a una alçada de 2900 ft

TAF: AGGM 060510Z 0606/0706 09007KT 9999 FEW018 SCT029 Q 1007 1009 1010 1008

Observacions i pronòstics meteorològics de més de 4000 aeroports (METAR i TAF).

Les estacions disponibles són els punts grocs i vermells al mapa.

Posi el ratolí al punt desitjat per veure el nom de l'estació.

Feu clic per veure les observacions i els pronòstics meteorològics.

Per canviar el mapa: feu clic els botons verds amb una creu de color negre per apropar; al botó verd amb un guió per allunyar la imatge; o en les fletxes verdes per a mapes adjacents.


METAR-TAF: